VNKT METAR

Available data for VNKT from the past hour
KATHMANDU INTL A
Metar
VNKT 250750Z 22009KT 9999 FEW015 FEW025TCU SCT030 28/20 Q1012 NOSIG

07:50 UTC

Wind: 220° 9kt

Visibility: 9999 m

Sky: FEW 1500 ft

Temp: 28 deg C / 82.4 deg F

Dewpoint: 20 deg C / 68 deg F

Pressure: 1012 hPa

TAF
TAF VNKT 250500Z 2506/2606 24005KT 8000 FEW015 SCT030 BECMG 2508/2509 30008KT 9999 FEW020 SCT030 PROB30 2506/2512 27010KT 4000 SHRA FEW025CB SCT030 OVC100 BECMG 2513/2514 VRB02KT 7000 FEW015 SCT030 BKN100 BECMG 2600/2602 00000KT 4000 BR FEW010 SCT030 BKN100 BECMG 2603/2604 13003KT 7000 FEW015 SCT100

WARNING: the data listed  above is for informational purposes only and should be confirmed from official sources. Data presented here on this page are fetched from Aviation weather data from NOAA’s Aviation Digital Data Service.

How to see the Details of METAR Reading.

Click on the Triangle beside of the Word METAR.(Refer to Fig.1)

VNKTmetar